createdAt,value
2022-12-05T00:02:28.330Z,79.22
2022-12-05T00:04:57.103Z,78.92
2022-12-05T00:07:25.904Z,79.59
2022-12-05T00:09:54.755Z,79.69
2022-12-05T00:12:24.882Z,80.12
2022-12-05T00:14:53.669Z,80.27
2022-12-05T00:17:22.372Z,79.80
2022-12-05T00:19:56.539Z,79.94
2022-12-05T00:22:27.442Z,80.38
2022-12-05T00:24:56.673Z,80.28
2022-12-05T00:27:26.823Z,80.31
2022-12-05T00:29:55.709Z,80.31
2022-12-05T00:32:24.644Z,80.10
2022-12-05T00:34:53.371Z,80.16
2022-12-05T00:37:22.313Z,79.91
2022-12-05T00:39:51.112Z,80.56
2022-12-05T00:42:19.700Z,80.46
2022-12-05T00:44:51.072Z,80.59
2022-12-05T00:47:20.073Z,80.54
2022-12-05T00:49:48.914Z,81.01
2022-12-05T00:52:18.778Z,80.40
2022-12-05T00:54:47.501Z,80.19
2022-12-05T00:57:16.182Z,79.95
2022-12-05T00:59:44.793Z,80.05
2022-12-05T01:02:14.894Z,80.28
2022-12-05T01:04:43.586Z,80.17
2022-12-05T01:07:12.425Z,80.07
2022-12-05T01:09:41.166Z,80.67
2022-12-05T01:12:09.815Z,79.44
2022-12-05T01:14:38.636Z,79.31
2022-12-05T01:17:07.526Z,80.39
2022-12-05T01:19:37.684Z,79.45
2022-12-05T01:22:06.132Z,79.58
2022-12-05T01:24:34.697Z,79.71
2022-12-05T01:27:03.515Z,79.68
2022-12-05T01:29:32.345Z,79.76
2022-12-05T01:32:01.325Z,79.15
2022-12-05T01:34:30.018Z,79.78
2022-12-05T01:37:00.039Z,78.85
2022-12-05T01:39:28.588Z,79.46
2022-12-05T01:41:57.132Z,79.12
2022-12-05T01:44:47.708Z,79.13
2022-12-05T01:47:19.498Z,78.66
2022-12-05T01:49:48.296Z,79.13
2022-12-05T01:52:23.499Z,78.95
2022-12-05T01:54:56.326Z,78.31
2022-12-05T01:57:26.594Z,78.07
2022-12-05T02:00:00.553Z,78.30
2022-12-05T02:02:31.296Z,79.03
2022-12-05T02:05:06.634Z,78.69
2022-12-05T02:07:39.667Z,78.03
2022-12-05T02:10:09.688Z,78.23
2022-12-05T02:12:39.312Z,78.33
2022-12-05T02:15:17.246Z,78.37
2022-12-05T02:17:54.441Z,78.25
2022-12-05T02:20:38.530Z,78.01
2022-12-05T02:23:40.749Z,78.34
2022-12-05T02:26:40.477Z,79.09
2022-12-05T02:29:20.299Z,78.79
2022-12-05T02:31:58.067Z,78.44
2022-12-05T02:34:32.897Z,78.55
2022-12-05T02:37:08.892Z,78.21
2022-12-05T02:39:45.719Z,78.72
2022-12-05T02:42:20.436Z,78.96
2022-12-05T02:44:54.703Z,78.83
2022-12-05T02:47:29.750Z,79.08
2022-12-05T02:49:59.981Z,78.91
2022-12-05T02:52:32.408Z,78.39
2022-12-05T02:55:02.708Z,78.85
2022-12-05T02:57:31.950Z,78.54
2022-12-05T03:00:00.759Z,78.97
2022-12-05T03:02:34.325Z,79.50
2022-12-05T03:05:16.727Z,79.43
2022-12-05T03:07:50.375Z,78.79
2022-12-05T03:10:23.618Z,79.82
2022-12-05T03:12:58.306Z,80.13
2022-12-05T03:15:33.361Z,79.84
2022-12-05T03:18:10.778Z,80.10
2022-12-05T03:20:47.002Z,80.81
2022-12-05T03:23:20.633Z,80.42
2022-12-05T03:25:55.752Z,80.82
2022-12-05T03:28:31.239Z,80.52
2022-12-05T03:31:10.040Z,81.40
2022-12-05T03:33:44.228Z,81.29
2022-12-05T03:36:17.249Z,81.21
2022-12-05T03:38:52.157Z,81.30
2022-12-05T03:41:27.049Z,81.27
2022-12-05T03:43:59.536Z,82.15
2022-12-05T03:46:31.497Z,82.12
2022-12-05T03:49:08.809Z,81.22
2022-12-05T03:51:43.268Z,81.67
2022-12-05T03:54:19.868Z,81.86
2022-12-05T03:56:55.647Z,81.61
2022-12-05T03:59:31.358Z,81.89
2022-12-05T04:02:05.630Z,82.20
2022-12-05T04:04:39.368Z,81.91
2022-12-05T04:07:10.628Z,82.13
2022-12-05T04:09:45.297Z,82.17
2022-12-05T04:12:18.874Z,83.26
2022-12-05T04:14:52.044Z,82.72
2022-12-05T04:17:25.745Z,83.20
2022-12-05T04:20:08.948Z,83.34
2022-12-05T04:22:39.417Z,82.77
2022-12-05T04:25:22.218Z,83.03
2022-12-05T04:28:00.046Z,82.59
2022-12-05T04:30:37.036Z,83.23
2022-12-05T04:33:11.497Z,83.48
2022-12-05T04:35:46.839Z,83.61
2022-12-05T04:38:19.858Z,83.17
2022-12-05T04:40:54.254Z,83.38
2022-12-05T04:43:25.606Z,83.69
2022-12-05T04:45:57.773Z,83.68
2022-12-05T04:48:29.459Z,83.42
2022-12-05T04:51:00.546Z,83.55
2022-12-05T04:53:32.706Z,82.74
2022-12-05T04:56:05.018Z,83.38
2022-12-05T04:58:34.762Z,83.43
2022-12-05T05:01:08.386Z,83.80
2022-12-05T05:03:42.775Z,83.67
2022-12-05T05:06:14.598Z,83.62
2022-12-05T05:08:50.651Z,83.95
2022-12-05T05:11:21.647Z,83.66
2022-12-05T05:13:50.606Z,83.30
2022-12-05T05:16:25.518Z,84.05
2022-12-05T05:18:54.866Z,83.32
2022-12-05T05:21:27.146Z,83.73
2022-12-05T05:23:57.356Z,83.46
2022-12-05T05:26:27.706Z,84.45
2022-12-05T05:28:56.467Z,83.38
2022-12-05T05:31:25.974Z,83.38
2022-12-05T05:33:57.258Z,83.70
2022-12-05T05:36:29.287Z,83.60
2022-12-05T05:39:00.038Z,83.41
2022-12-05T05:41:30.845Z,83.69
2022-12-05T05:44:00.688Z,83.05
2022-12-05T05:46:31.516Z,83.90
2022-12-05T05:49:00.636Z,83.63
2022-12-05T05:51:30.732Z,84.17
2022-12-05T05:54:00.307Z,84.29
2022-12-05T05:56:30.098Z,84.08
2022-12-05T05:59:00.337Z,84.18
2022-12-05T06:01:29.724Z,84.52
2022-12-05T06:03:58.921Z,83.87
2022-12-05T06:06:28.079Z,84.56
2022-12-05T06:08:58.425Z,84.36
2022-12-05T06:11:29.251Z,84.80
2022-12-05T06:14:01.484Z,84.33
2022-12-05T06:16:31.160Z,84.72
2022-12-05T06:18:59.687Z,84.56
2022-12-05T06:21:28.596Z,85.14
2022-12-05T06:23:58.600Z,84.77
2022-12-05T06:26:27.429Z,84.82
2022-12-05T06:28:56.099Z,84.71
2022-12-05T06:31:31.294Z,85.18
2022-12-05T06:34:02.955Z,84.43
2022-12-05T06:36:32.253Z,85.00
2022-12-05T06:39:02.492Z,84.38
2022-12-05T06:41:31.295Z,84.58
2022-12-05T06:44:02.146Z,84.18
2022-12-05T06:46:31.740Z,84.51
2022-12-05T06:49:00.650Z,84.40
2022-12-05T06:51:29.561Z,84.06
2022-12-05T06:53:58.277Z,83.73
2022-12-05T06:56:28.976Z,83.15
2022-12-05T06:58:57.537Z,84.15
2022-12-05T07:01:36.605Z,83.93
2022-12-05T07:04:06.941Z,83.12
2022-12-05T07:06:36.750Z,82.93
2022-12-05T07:09:06.808Z,83.04
2022-12-05T07:11:38.296Z,83.27
2022-12-05T07:14:14.890Z,83.31
2022-12-05T07:16:54.565Z,83.24
2022-12-05T07:19:23.236Z,83.56
2022-12-05T07:21:52.386Z,83.73
2022-12-05T07:24:20.958Z,83.23
2022-12-05T07:26:51.328Z,83.58
2022-12-05T07:29:20.055Z,83.03
2022-12-05T07:31:48.778Z,83.17
2022-12-05T07:34:17.419Z,83.20
2022-12-05T07:36:45.872Z,83.02
2022-12-05T07:39:14.499Z,83.09
2022-12-05T07:41:43.038Z,83.00
2022-12-05T07:44:16.929Z,83.20
2022-12-05T07:46:45.877Z,83.31
2022-12-05T07:49:16.101Z,82.79
2022-12-05T07:51:44.700Z,83.06
2022-12-05T07:54:13.596Z,83.22
2022-12-05T07:56:47.615Z,83.03
2022-12-05T07:59:18.090Z,83.29
2022-12-05T08:01:46.900Z,82.65
2022-12-05T08:04:16.010Z,82.54
2022-12-05T08:06:45.093Z,83.29
2022-12-05T08:09:13.689Z,82.52
2022-12-05T08:11:42.329Z,83.52
2022-12-05T08:14:12.201Z,82.52
2022-12-05T08:16:42.323Z,83.06
2022-12-05T08:19:14.254Z,83.09
2022-12-05T08:21:42.798Z,82.98
2022-12-05T08:24:12.576Z,82.55
2022-12-05T08:26:40.829Z,82.73
2022-12-05T08:29:12.034Z,83.09
2022-12-05T08:31:45.010Z,82.72
2022-12-05T08:34:14.460Z,82.33
2022-12-05T08:36:42.891Z,82.30
2022-12-05T08:39:16.224Z,81.97
2022-12-05T08:41:45.250Z,81.85
2022-12-05T08:44:16.600Z,81.77
2022-12-05T08:46:48.476Z,81.14
2022-12-05T08:49:17.324Z,81.23
2022-12-05T08:51:46.027Z,80.75
2022-12-05T08:54:15.231Z,81.04
2022-12-05T08:56:43.872Z,79.93
2022-12-05T08:59:12.479Z,80.29
2022-12-05T09:01:42.476Z,80.44
2022-12-05T09:04:13.328Z,80.05
2022-12-05T09:06:42.545Z,79.76
2022-12-05T09:09:12.952Z,80.12
2022-12-05T09:11:46.819Z,80.08
2022-12-05T09:14:16.397Z,79.59
2022-12-05T09:16:48.104Z,80.09
2022-12-05T09:19:20.954Z,79.90
2022-12-05T09:21:49.754Z,79.64
2022-12-05T09:24:18.424Z,78.92
2022-12-05T09:26:47.971Z,79.05
2022-12-05T09:29:17.962Z,79.11
2022-12-05T09:31:51.923Z,79.22
2022-12-05T09:34:21.891Z,79.58
2022-12-05T09:37:05.512Z,79.41
2022-12-05T09:39:35.105Z,79.26
2022-12-05T09:42:28.017Z,78.99
2022-12-05T09:45:24.733Z,79.54
2022-12-05T09:48:00.035Z,78.96
2022-12-05T09:50:33.202Z,78.84
2022-12-05T09:53:12.271Z,78.96
2022-12-05T09:55:48.448Z,78.55
2022-12-05T09:58:28.613Z,78.81
2022-12-05T10:01:04.718Z,78.53
2022-12-05T10:03:42.990Z,78.97
2022-12-05T10:06:19.904Z,79.16
2022-12-05T10:09:12.391Z,78.99
2022-12-05T10:11:48.053Z,78.79
2022-12-05T10:14:28.634Z,78.29
2022-12-05T10:17:02.752Z,78.57
2022-12-05T10:19:35.976Z,78.33
2022-12-05T10:22:20.092Z,78.85
2022-12-05T10:24:53.685Z,78.52
2022-12-05T10:27:27.921Z,78.29
2022-12-05T10:30:01.764Z,78.11
2022-12-05T10:32:37.834Z,78.68
2022-12-05T10:35:17.840Z,77.92
2022-12-05T10:37:51.161Z,78.46
2022-12-05T10:40:20.559Z,78.04
2022-12-05T10:42:50.844Z,78.61
2022-12-05T10:45:22.823Z,78.57
2022-12-05T10:47:57.453Z,78.55
2022-12-05T10:50:30.465Z,78.09
2022-12-05T10:53:03.823Z,77.69
2022-12-05T10:55:37.820Z,77.85
2022-12-05T10:58:18.013Z,77.41
2022-12-05T11:00:51.957Z,78.11
2022-12-05T11:03:28.273Z,78.36
2022-12-05T11:05:59.313Z,78.83
2022-12-05T11:09:02.513Z,78.26
2022-12-05T11:11:23.527Z,78.76
2022-12-05T11:13:56.163Z,78.18
2022-12-05T11:16:26.115Z,78.40
2022-12-05T11:18:54.723Z,78.32
2022-12-05T11:21:23.616Z,78.47
2022-12-05T11:23:53.583Z,78.28
2022-12-05T11:26:36.506Z,78.08
2022-12-05T11:29:05.739Z,78.29
2022-12-05T11:31:34.537Z,77.61
2022-12-05T11:34:15.084Z,78.49
2022-12-05T11:36:48.198Z,78.20
2022-12-05T11:39:18.223Z,78.43
2022-12-05T11:42:01.964Z,78.73
2022-12-05T11:44:43.796Z,78.99
2022-12-05T11:47:24.268Z,78.83
2022-12-05T11:50:09.525Z,78.85
2022-12-05T11:52:56.767Z,79.34
2022-12-05T11:55:32.083Z,78.80
2022-12-05T11:58:36.413Z,78.93
2022-12-05T12:01:13.764Z,79.38
2022-12-05T12:04:10.565Z,79.36
2022-12-05T12:06:55.248Z,79.75
2022-12-05T12:09:36.365Z,78.58
2022-12-05T12:12:14.447Z,78.92
2022-12-05T12:14:52.402Z,79.46
2022-12-05T12:17:32.604Z,79.54
2022-12-05T12:20:14.715Z,79.39
2022-12-05T12:23:02.459Z,79.16
2022-12-05T12:25:43.446Z,79.30
2022-12-05T12:28:30.993Z,79.36
2022-12-05T12:31:16.869Z,79.21
2022-12-05T12:33:51.496Z,79.42
2022-12-05T12:36:27.583Z,78.95
2022-12-05T12:39:11.436Z,79.20
2022-12-05T12:42:04.326Z,78.93
2022-12-05T12:45:05.449Z,78.71
2022-12-05T12:47:48.408Z,79.00
2022-12-05T12:50:22.968Z,79.50
2022-12-05T12:53:20.478Z,78.90
2022-12-05T12:55:56.406Z,78.67
2022-12-05T12:58:44.840Z,79.63
2022-12-05T13:01:23.725Z,79.23
2022-12-05T13:04:03.018Z,78.66
2022-12-05T13:06:36.988Z,79.42
2022-12-05T13:09:09.755Z,79.15
2022-12-05T13:11:41.301Z,79.02
2022-12-05T13:14:14.360Z,79.84
2022-12-05T13:16:46.432Z,78.83
2022-12-05T13:19:27.516Z,79.46
2022-12-05T13:21:59.041Z,79.92
2022-12-05T13:24:29.722Z,80.15
2022-12-05T13:27:01.358Z,79.67
2022-12-05T13:29:35.080Z,80.38
2022-12-05T13:32:05.464Z,80.28
2022-12-05T13:34:57.299Z,79.93
2022-12-05T13:37:38.671Z,80.54
2022-12-05T13:40:35.073Z,80.03
2022-12-05T13:43:05.220Z,80.63
2022-12-05T13:45:34.790Z,80.82
2022-12-05T13:48:15.129Z,80.34
2022-12-05T13:50:51.900Z,80.72
2022-12-05T13:53:43.734Z,80.45
2022-12-05T13:56:29.091Z,81.09
2022-12-05T13:58:59.703Z,80.43
2022-12-05T14:01:57.347Z,80.51
2022-12-05T14:04:50.537Z,80.44
2022-12-05T14:07:40.692Z,80.30
2022-12-05T14:10:14.194Z,81.27
2022-12-05T14:12:55.658Z,80.71
2022-12-05T14:15:34.048Z,81.52
2022-12-05T14:18:14.584Z,80.94
2022-12-05T14:21:05.173Z,81.32
2022-12-05T14:24:02.980Z,80.89
2022-12-05T14:26:52.925Z,81.56
2022-12-05T14:29:40.934Z,81.52
2022-12-05T14:32:24.078Z,81.03
2022-12-05T14:35:05.503Z,81.89
2022-12-05T14:37:37.561Z,81.45
2022-12-05T14:40:22.152Z,81.27
2022-12-05T14:42:58.904Z,81.03
2022-12-05T14:45:36.403Z,81.56
2022-12-05T14:48:07.950Z,82.30
2022-12-05T14:50:45.700Z,81.78
2022-12-05T14:53:31.771Z,81.95
2022-12-05T14:56:20.175Z,82.24
2022-12-05T14:58:57.102Z,82.21
2022-12-05T15:01:30.608Z,82.24
2022-12-05T15:04:21.400Z,82.29
2022-12-05T15:06:54.381Z,81.60
2022-12-05T15:09:45.576Z,82.55
2022-12-05T15:12:18.642Z,82.54
2022-12-05T15:14:56.550Z,82.36
2022-12-05T15:17:32.191Z,82.75
2022-12-05T15:20:05.734Z,82.44
2022-12-05T15:22:37.324Z,82.63
2022-12-05T15:25:27.511Z,82.69
2022-12-05T15:27:58.473Z,83.22
2022-12-05T15:30:29.639Z,83.14
2022-12-05T15:32:59.830Z,83.34
2022-12-05T15:35:33.600Z,83.22
2022-12-05T15:38:09.432Z,82.85
2022-12-05T15:40:41.115Z,82.69
2022-12-05T15:43:31.829Z,83.27
2022-12-05T15:46:24.214Z,83.18
2022-12-05T15:48:54.097Z,83.09
2022-12-05T15:51:26.887Z,82.98
2022-12-05T15:54:01.649Z,83.77
2022-12-05T15:56:34.805Z,83.42
2022-12-05T15:59:07.378Z,83.38
2022-12-05T16:01:46.278Z,83.90
2022-12-05T16:04:24.869Z,83.47
2022-12-05T16:06:57.969Z,82.93
2022-12-05T16:09:30.545Z,83.04
2022-12-05T16:12:02.793Z,83.12
2022-12-05T16:14:58.933Z,83.31
2022-12-05T16:17:26.444Z,83.90
2022-12-05T16:19:55.056Z,83.87
2022-12-05T16:22:28.964Z,84.42
2022-12-05T16:25:02.295Z,84.04
2022-12-05T16:27:36.077Z,84.27
2022-12-05T16:30:20.723Z,84.53
2022-12-05T16:32:59.288Z,83.90
2022-12-05T16:35:35.105Z,84.44
2022-12-05T16:38:13.809Z,83.64
2022-12-05T16:40:52.355Z,84.26
2022-12-05T16:43:26.236Z,84.00
2022-12-05T16:45:58.761Z,83.93
2022-12-05T16:48:30.288Z,84.15
2022-12-05T16:51:18.584Z,84.25
2022-12-05T16:53:50.013Z,84.08
2022-12-05T16:56:22.015Z,84.25
2022-12-05T16:58:51.085Z,84.52
2022-12-05T17:01:22.647Z,84.49
2022-12-05T17:03:54.723Z,84.60
2022-12-05T17:06:27.467Z,84.44
2022-12-05T17:08:56.286Z,84.64
2022-12-05T17:11:27.726Z,84.51
2022-12-05T17:13:57.887Z,85.00
2022-12-05T17:16:27.700Z,84.79
2022-12-05T17:18:58.116Z,85.21
2022-12-05T17:21:33.064Z,84.62
2022-12-05T17:24:02.187Z,84.59
2022-12-05T17:26:31.015Z,85.21
2022-12-05T17:28:59.620Z,84.87
2022-12-05T17:31:28.352Z,84.70
2022-12-05T17:33:58.499Z,84.71
2022-12-05T17:36:27.304Z,84.95
2022-12-05T17:38:56.139Z,84.61
2022-12-05T17:41:25.518Z,84.86
2022-12-05T17:43:54.263Z,84.95
2022-12-05T17:46:24.717Z,85.08
2022-12-05T17:48:55.202Z,85.53
2022-12-05T17:51:25.749Z,85.50
2022-12-05T17:53:54.711Z,85.90
2022-12-05T17:56:23.829Z,84.94
2022-12-05T17:58:52.520Z,84.92
2022-12-05T18:01:21.761Z,85.22
2022-12-05T18:03:50.773Z,85.11
2022-12-05T18:06:19.644Z,85.80
2022-12-05T18:08:49.947Z,85.62
2022-12-05T18:11:19.128Z,86.00
2022-12-05T18:13:47.839Z,85.71
2022-12-05T18:16:16.640Z,85.77
2022-12-05T18:18:45.259Z,85.94
2022-12-05T18:21:14.975Z,85.26
2022-12-05T18:23:43.572Z,86.17
2022-12-05T18:26:13.738Z,86.28
2022-12-05T18:28:42.306Z,85.85
2022-12-05T18:31:15.094Z,86.19
2022-12-05T18:33:44.887Z,86.11
2022-12-05T18:36:15.796Z,86.76
2022-12-05T18:38:50.414Z,86.76
2022-12-05T18:41:21.203Z,86.90
2022-12-05T18:43:49.882Z,86.90
2022-12-05T18:46:18.605Z,87.17
2022-12-05T18:48:48.163Z,87.52
2022-12-05T18:51:19.860Z,87.56
2022-12-05T18:53:52.398Z,87.49
2022-12-05T18:56:26.476Z,88.17
2022-12-05T18:58:57.931Z,88.15
2022-12-05T19:01:27.304Z,88.04
2022-12-05T19:03:58.342Z,88.05
2022-12-05T19:06:30.152Z,88.61
2022-12-05T19:09:02.148Z,88.21
2022-12-05T19:11:32.409Z,88.86
2022-12-05T19:14:02.893Z,88.91
2022-12-05T19:16:34.092Z,88.66
2022-12-05T19:19:05.201Z,89.31
2022-12-05T19:21:35.751Z,89.07
2022-12-05T19:24:06.770Z,89.06
2022-12-05T19:26:38.500Z,88.96
2022-12-05T19:29:08.382Z,89.15
2022-12-05T19:31:37.104Z,89.00
2022-12-05T19:34:08.542Z,89.48
2022-12-05T19:36:39.492Z,89.11
2022-12-05T19:39:10.630Z,89.11
2022-12-05T19:41:40.879Z,89.32
2022-12-05T19:44:09.633Z,88.94
2022-12-05T19:46:38.715Z,89.42
2022-12-05T19:49:17.611Z,89.43
2022-12-05T19:51:46.639Z,89.16
2022-12-05T19:54:18.008Z,89.77
2022-12-05T19:56:48.750Z,89.46
2022-12-05T19:59:17.941Z,89.63
2022-12-05T20:01:46.618Z,90.38
2022-12-05T20:04:18.015Z,90.56
2022-12-05T20:06:49.317Z,90.33
2022-12-05T20:09:19.807Z,89.89
2022-12-05T20:11:55.155Z,89.98
2022-12-05T20:14:26.279Z,89.67
2022-12-05T20:16:55.210Z,90.22
2022-12-05T20:19:24.261Z,90.29
2022-12-05T20:21:52.938Z,90.83
2022-12-05T20:24:21.470Z,90.90
2022-12-05T20:26:53.282Z,90.54
2022-12-05T20:29:22.411Z,90.36
2022-12-05T20:31:56.966Z,90.45
2022-12-05T20:34:26.941Z,90.82
2022-12-05T20:36:55.510Z,91.11
2022-12-05T20:39:25.010Z,90.98
2022-12-05T20:41:55.529Z,90.47
2022-12-05T20:44:24.462Z,91.33
2022-12-05T20:46:53.700Z,91.08
2022-12-05T20:49:22.421Z,91.01
2022-12-05T20:51:51.041Z,90.86
2022-12-05T20:54:19.825Z,90.66
2022-12-05T20:56:49.499Z,91.46
2022-12-05T20:59:19.299Z,91.33
2022-12-05T21:01:48.061Z,90.99
2022-12-05T21:04:16.912Z,90.61
2022-12-05T21:06:47.098Z,90.67
2022-12-05T21:09:27.008Z,90.84
2022-12-05T21:11:55.889Z,91.40
2022-12-05T21:14:26.198Z,91.48
2022-12-05T21:16:54.950Z,91.60
2022-12-05T21:19:23.630Z,91.63
2022-12-05T21:21:53.982Z,91.28
2022-12-05T21:24:23.338Z,91.20
2022-12-05T21:26:52.600Z,91.03
2022-12-05T21:29:21.407Z,91.65
2022-12-05T21:31:52.151Z,91.66
2022-12-05T21:34:21.886Z,91.09
2022-12-05T21:36:50.189Z,91.19
2022-12-05T21:39:18.896Z,91.08
2022-12-05T21:41:48.727Z,91.28
2022-12-05T21:44:19.713Z,90.98
2022-12-05T21:46:48.607Z,91.52
2022-12-05T21:49:19.032Z,91.11
2022-12-05T21:51:47.920Z,92.09
2022-12-05T21:54:16.519Z,92.05
2022-12-05T21:56:45.458Z,91.63
2022-12-05T21:59:13.958Z,92.11
2022-12-05T22:01:42.667Z,92.16
2022-12-05T22:04:11.462Z,91.83
2022-12-05T22:06:41.585Z,92.27
2022-12-05T22:09:10.211Z,91.49
2022-12-05T22:11:38.729Z,92.08
2022-12-05T22:14:07.381Z,92.47
2022-12-05T22:16:36.148Z,92.39
2022-12-05T22:19:04.882Z,91.87
2022-12-05T22:21:34.439Z,92.04
2022-12-05T22:24:04.249Z,92.51
2022-12-05T22:26:33.379Z,92.86
2022-12-05T22:29:02.039Z,92.51
2022-12-05T22:31:30.800Z,92.68
2022-12-05T22:33:59.481Z,92.88
2022-12-05T22:36:28.598Z,92.23
2022-12-05T22:38:57.287Z,93.11
2022-12-05T22:41:28.057Z,93.17
2022-12-05T22:43:59.244Z,92.59
2022-12-05T22:46:29.841Z,92.54
2022-12-05T22:48:59.113Z,92.69
2022-12-05T22:51:28.178Z,92.55
2022-12-05T22:53:57.539Z,92.89
2022-12-05T22:56:29.380Z,93.16
2022-12-05T22:58:59.613Z,93.01
2022-12-05T23:01:30.615Z,93.48
2022-12-05T23:04:01.305Z,92.73
2022-12-05T23:06:31.468Z,92.78
2022-12-05T23:09:00.546Z,93.26
2022-12-05T23:11:30.960Z,92.74
2022-12-05T23:14:02.138Z,93.10
2022-12-05T23:16:33.494Z,92.95
2022-12-05T23:19:03.886Z,93.09
2022-12-05T23:21:34.920Z,93.16
2022-12-05T23:24:05.695Z,93.39
2022-12-05T23:26:38.989Z,92.41
2022-12-05T23:29:07.692Z,93.37
2022-12-05T23:31:36.361Z,93.35
2022-12-05T23:34:05.099Z,92.85
2022-12-05T23:36:34.620Z,93.05
2022-12-05T23:39:03.698Z,92.80
2022-12-05T23:41:32.271Z,92.61
2022-12-05T23:44:02.282Z,92.86
2022-12-05T23:46:31.414Z,93.58
2022-12-05T23:49:00.347Z,93.21
2022-12-05T23:51:31.013Z,93.26
2022-12-05T23:54:01.525Z,93.17
2022-12-05T23:56:31.901Z,92.76
2022-12-05T23:59:03.262Z,93.30
